Time;durP1;ratioP1;P1;durP2;ratioP2;P2;SDS_P1;SDS_P2;PMS_P1;PMS_P2;Temp;Humidity;BMP_temperature;BMP_pressure;BME280_temperature;BME280_humidity;BME280_pressure;Samples;Min_cycle;Max_cycle;Signal;HPM_P1;HPM_P2
2021/01/26 00:02:33;;;;;;;9.27;6.20;;;;;;;0.77;58.43;96997.28;9910124;29;20563;-74
2021/01/26 00:07:53;;;;;;;8.60;6.05;;;;;;;0.80;58.97;97009.94;9921342;29;20069;-73
2021/01/26 00:13:13;;;;;;;8.93;5.35;;;;;;;0.76;59.83;97006.81;9914502;29;20074;-74
2021/01/26 00:18:34;;;;;;;6.93;5.13;;;;;;;0.74;61.23;97004.59;9916056;29;20066;-74
2021/01/26 00:23:54;;;;;;;6.93;5.28;;;;;;;0.74;59.57;97007.34;9929215;29;20576;-74
2021/01/26 00:29:14;;;;;;;8.50;5.45;;;;;;;0.71;59.94;97018.72;9940749;29;20084;-73
2021/01/26 00:34:34;;;;;;;8.48;5.43;;;;;;;0.72;59.97;97020.91;9916276;29;20090;-74
2021/01/26 00:39:54;;;;;;;9.25;5.40;;;;;;;0.69;60.75;97008.28;9927757;29;20067;-74
2021/01/26 00:45:14;;;;;;;11.43;5.43;;;;;;;0.52;60.55;97016.28;9941287;29;20147;-74
2021/01/26 00:50:34;;;;;;;6.57;5.20;;;;;;;0.33;62.24;97010.34;9914863;29;20498;-74
2021/01/26 00:55:55;;;;;;;8.43;5.32;;;;;;;0.13;61.80;97020.16;9927585;29;20063;-74
2021/01/26 01:01:14;;;;;;;8.45;5.75;;;;;;;-0.13;61.91;97021.84;9911830;29;20054;-74
2021/01/26 01:06:38;;;;;;;8.95;4.90;;;;;;;-0.26;63.22;97024.69;9915411;29;20070;-74
2021/01/26 01:11:59;;;;;;;8.07;5.38;;;;;;;-0.44;62.82;97031.88;9953479;29;20407;-73
2021/01/26 01:17:19;;;;;;;7.93;4.85;;;;;;;-0.62;62.80;97035.56;9913996;29;20402;-74
2021/01/26 01:22:39;;;;;;;8.77;5.20;;;;;;;-0.76;62.81;97043.16;9926582;29;20094;-73
2021/01/26 01:27:58;;;;;;;8.15;5.20;;;;;;;-0.88;62.28;97039.91;9952817;29;20122;-74
2021/01/26 01:33:18;;;;;;;8.15;5.43;;;;;;;-1.00;63.51;97027.75;9900888;29;20572;-73
2021/01/26 01:38:40;;;;;;;9.63;5.25;;;;;;;-1.06;62.28;97029.91;9913638;29;20069;-74
2021/01/26 01:44:00;;;;;;;6.30;4.95;;;;;;;-1.09;62.63;97036.44;9912981;29;20150;-74
2021/01/26 01:49:25;;;;;;;7.82;4.90;;;;;;;-1.19;63.47;97038.16;9925545;29;20554;-73
2021/01/26 01:54:49;;;;;;;9.53;5.20;;;;;;;-1.31;63.90;97045.16;9925628;29;20069;-73
2021/01/26 02:00:12;;;;;;;7.85;5.25;;;;;;;-1.39;64.00;97044.34;9925269;29;20073;-73
2021/01/26 02:05:35;;;;;;;9.30;6.05;;;;;;;-1.52;65.80;97045.13;9924807;29;20503;-74
2021/01/26 02:10:54;;;;;;;8.73;5.75;;;;;;;-1.56;64.59;97056.38;9912235;29;20070;-74
2021/01/26 02:16:29;;;;;;;8.70;5.93;;;;;;;-1.67;65.29;97056.63;9912925;29;20115;-74
2021/01/26 02:22:16;;;;;;;7.72;5.72;;;;;;;-1.73;66.24;97066.97;9914254;29;20118;-73
2021/01/26 02:28:23;;;;;;;7.05;4.57;;;;;;;-1.75;64.23;97075.69;9912031;30;20069;-74
2021/01/26 02:34:29;;;;;;;8.25;5.20;;;;;;;-1.80;65.45;97081.28;9913599;29;20067;-73
2021/01/26 02:40:06;;;;;;;6.30;5.22;;;;;;;-1.86;65.76;97088.84;9899080;30;20415;-74
2021/01/26 02:45:35;;;;;;;7.72;6.03;;;;;;;-1.91;66.28;97090.44;9898646;30;20070;-73
2021/01/26 02:51:33;;;;;;;8.68;5.82;;;;;;;-1.95;66.65;97092.00;9886494;30;20067;-73
2021/01/26 02:57:06;;;;;;;9.52;5.78;;;;;;;-1.97;65.69;97100.00;9898824;30;20063;-74
2021/01/26 03:02:38;;;;;;;9.50;6.28;;;;;;;-2.05;66.91;97097.88;9899228;30;20115;-73
2021/01/26 03:08:08;;;;;;;8.75;5.72;;;;;;;-2.08;65.45;97092.75;9885704;30;20063;-74
2021/01/26 03:13:31;;;;;;;7.63;5.65;;;;;;;-2.12;66.31;97106.75;9886302;30;20192;-74
2021/01/26 03:18:56;;;;;;;8.45;5.78;;;;;;;-2.19;66.80;97101.88;9873251;30;20459;-74
2021/01/26 03:24:27;;;;;;;9.40;6.60;;;;;;;-2.12;67.44;97100.53;9899024;29;20516;-73
2021/01/26 03:29:48;;;;;;;9.55;6.35;;;;;;;-2.00;67.99;97117.47;9909963;29;20503;-74
2021/01/26 03:35:09;;;;;;;9.98;6.55;;;;;;;-1.94;67.05;97121.56;9909746;29;20514;-74
2021/01/26 03:40:29;;;;;;;9.63;6.80;;;;;;;-1.91;68.14;97126.00;9909421;29;20069;-73
2021/01/26 03:46:13;;;;;;;9.43;6.57;;;;;;;-1.95;66.70;97135.75;9934710;29;20069;-74
2021/01/26 03:52:32;;;;;;;11.35;7.40;;;;;;;-2.03;67.00;97135.66;9921502;29;20066;-74
2021/01/26 03:58:09;;;;;;;8.55;6.05;;;;;;;-2.06;67.62;97136.72;9947568;29;20065;-73
2021/01/26 04:03:54;;;;;;;9.50;6.20;;;;;;;-2.15;67.61;97139.84;9934975;29;20094;-74
2021/01/26 04:09:18;;;;;;;9.47;7.00;;;;;;;-2.25;68.88;97142.25;9911603;29;20074;-74
2021/01/26 04:14:43;;;;;;;12.10;7.40;;;;;;;-2.31;68.58;97138.88;9908931;29;20050;-73
2021/01/26 04:20:13;;;;;;;8.68;6.45;;;;;;;-2.39;69.35;97151.69;9909911;29;20067;-74
2021/01/26 04:25:42;;;;;;;9.00;6.63;;;;;;;-2.44;68.91;97155.25;9896659;29;20094;-74
2021/01/26 04:31:03;;;;;;;9.13;6.80;;;;;;;-2.53;69.31;97152.91;9933306;29;20062;-74
2021/01/26 04:36:24;;;;;;;9.77;6.60;;;;;;;-2.58;69.31;97148.28;9908505;29;20063;-74
2021/01/26 04:41:57;;;;;;;10.35;6.65;;;;;;;-2.64;69.52;97149.06;9920723;29;20063;-74
2021/01/26 04:47:23;;;;;;;9.15;6.68;;;;;;;-2.72;70.84;97155.66;9908066;29;20058;-74
2021/01/26 04:53:15;;;;;;;9.20;6.70;;;;;;;-2.77;69.79;97159.97;9909015;29;20135;-74
2021/01/26 04:58:59;;;;;;;9.70;7.07;;;;;;;-2.80;69.90;97160.97;9938596;29;20087;-73
2021/01/26 05:04:31;;;;;;;11.57;6.57;;;;;;;-2.81;70.54;97159.50;9927839;29;20376;-73
2021/01/26 05:10:36;;;;;;;10.43;7.20;;;;;;;-2.90;70.60;97157.16;9915446;29;20067;-73
2021/01/26 05:16:21;;;;;;;8.45;6.03;;;;;;;-3.02;71.84;97156.59;9939094;29;20069;-73
2021/01/26 05:21:48;;;;;;;7.97;6.22;;;;;;;-3.05;70.98;97157.63;9915700;29;20151;-74
2021/01/26 05:27:08;;;;;;;8.70;6.25;;;;;;;-3.09;70.80;97162.63;9926092;29;20062;-74
2021/01/26 05:32:28;;;;;;;8.18;5.85;;;;;;;-3.12;71.71;97168.41;9926988;29;20449;-73
2021/01/26 05:37:52;;;;;;;8.23;5.88;;;;;;;-3.13;71.02;97162.19;9927130;29;20120;-76
2021/01/26 05:43:16;;;;;;;7.88;6.05;;;;;;;-3.11;70.99;97161.66;9914597;29;20067;-76
2021/01/26 05:48:49;;;;;;;7.95;6.30;;;;;;;-3.09;70.61;97165.34;9912979;29;20066;-75
2021/01/26 05:54:14;;;;;;;7.90;5.95;;;;;;;-3.07;70.99;97167.59;9913290;29;20096;-75
2021/01/26 05:59:35;;;;;;;8.20;5.85;;;;;;;-3.08;70.39;97174.31;9912114;29;20066;-75
2021/01/26 06:05:07;;;;;;;8.23;5.90;;;;;;;-3.03;70.54;97182.41;9926119;29;20150;-75
2021/01/26 06:10:30;;;;;;;9.25;7.15;;;;;;;-3.00;72.03;97180.63;9924614;29;20070;-74
2021/01/26 06:15:50;;;;;;;8.80;5.85;;;;;;;-2.95;70.42;97185.31;9912886;29;20065;-74
2021/01/26 06:21:11;;;;;;;9.00;6.50;;;;;;;-2.99;71.39;97187.56;9924094;29;20453;-72
2021/01/26 06:26:34;;;;;;;9.65;6.63;;;;;;;-3.05;70.87;97187.66;9936576;29;20493;-73
2021/01/26 06:32:32;;;;;;;10.05;6.65;;;;;;;-3.05;71.29;97195.84;9911551;29;20063;-73
2021/01/26 06:38:18;;;;;;;10.82;7.55;;;;;;;-2.98;71.25;97189.06;9937097;29;20070;-75
2021/01/26 06:43:52;;;;;;;10.30;7.00;;;;;;;-2.87;70.50;97194.38;9935951;29;20067;-75
2021/01/26 06:49:51;;;;;;;9.67;6.70;;;;;;;-2.58;71.08;97200.94;9936059;29;20059;-75
2021/01/26 06:55:41;;;;;;;11.15;6.82;;;;;;;-2.15;69.99;97202.75;9949231;29;20062;-76
2021/01/26 07:01:39;;;;;;;8.90;6.00;;;;;;;-1.66;68.62;97196.94;9949142;29;20071;-75
2021/01/26 07:07:51;;;;;;;7.72;6.07;;;;;;;0.83;66.20;97210.16;9935111;29;20137;-73
2021/01/26 07:13:36;;;;;;;7.03;5.53;;;;;;;2.09;60.63;97206.63;9931218;29;20066;-73
2021/01/26 07:19:12;;;;;;;6.70;5.80;;;;;;;1.08;61.42;97210.47;9949348;29;20067;-73
2021/01/26 07:25:00;;;;;;;7.57;5.15;;;;;;;0.51;61.86;97210.53;9935032;29;20465;-74
2021/01/26 07:30:34;;;;;;;7.38;5.97;;;;;;;0.37;63.14;97200.16;9948506;29;20503;-73
2021/01/26 07:36:23;;;;;;;6.78;5.63;;;;;;;0.42;62.90;97200.03;9922823;29;20066;-74
2021/01/26 07:41:51;;;;;;;9.18;6.13;;;;;;;0.32;63.13;97201.78;9935489;29;20093;-74
2021/01/26 07:47:21;;;;;;;7.80;5.70;;;;;;;0.01;64.86;97200.84;9948293;29;20077;-74
2021/01/26 07:52:40;;;;;;;7.05;5.85;;;;;;;-0.33;67.00;97198.88;9921690;29;20058;-74
2021/01/26 07:58:06;;;;;;;8.82;6.25;;;;;;;-0.61;70.16;97205.00;9934601;29;20066;-74
2021/01/26 08:03:30;;;;;;;8.13;6.78;;;;;;;-1.00;74.38;97191.41;9922388;29;20106;-73
2021/01/26 08:08:51;;;;;;;8.23;6.38;;;;;;;-0.92;73.73;97197.72;9935504;29;20059;-73
2021/01/26 08:14:13;;;;;;;9.90;6.95;;;;;;;-0.47;71.68;97192.00;9910979;29;20063;-73
2021/01/26 08:19:41;;;;;;;11.88;8.27;;;;;;;0.37;70.35;97189.19;9909937;29;20410;-73
2021/01/26 08:25:31;;;;;;;11.73;7.78;;;;;;;0.91;68.28;97179.22;9897225;30;20067;-74
2021/01/26 08:30:50;;;;;;;12.63;7.65;;;;;;;0.79;68.11;97179.56;9896542;30;20511;-74
2021/01/26 08:36:39;;;;;;;12.07;7.05;;;;;;;0.51;68.30;97176.84;9933381;29;20063;-74
2021/01/26 08:41:59;;;;;;;9.10;7.53;;;;;;;0.60;67.99;97198.31;9943886;29;20069;-75
2021/01/26 08:48:01;;;;;;;9.45;7.38;;;;;;;0.83;67.33;97188.16;9928132;29;20070;-73
2021/01/26 08:53:26;;;;;;;8.60;6.65;;;;;;;1.03;66.76;97188.63;9874551;30;20239;-73
2021/01/26 08:58:51;;;;;;;11.50;7.20;;;;;;;1.86;65.96;97168.81;9947871;29;20069;-74
2021/01/26 09:04:11;;;;;;;10.35;7.50;;;;;;;2.88;63.71;97183.38;9927411;29;20070;-74
2021/01/26 09:09:31;;;;;;;9.73;6.97;;;;;;;2.51;63.02;97180.16;9953003;29;20127;-74
2021/01/26 09:14:52;;;;;;;9.60;8.00;;;;;;;1.50;65.02;97173.72;9952677;29;20073;-73
2021/01/26 09:20:23;;;;;;;12.82;8.52;;;;;;;0.92;66.32;97183.44;9927241;29;20533;-73
2021/01/26 09:25:44;;;;;;;9.48;7.80;;;;;;;0.67;67.34;97175.63;9926471;29;20067;-74
2021/01/26 09:31:04;;;;;;;10.13;8.10;;;;;;;0.63;68.98;97175.25;9925935;29;20066;-74
2021/01/26 09:36:24;;;;;;;10.32;8.15;;;;;;;0.65;69.06;97178.19;9925788;29;20062;-74
2021/01/26 09:41:43;;;;;;;12.23;8.05;;;;;;;0.46;71.51;97166.72;9953100;29;20062;-74
2021/01/26 09:47:05;;;;;;;12.07;8.60;;;;;;;0.47;71.35;97166.19;9938139;29;20063;-74
2021/01/26 09:52:25;;;;;;;10.10;7.82;;;;;;;0.51;70.65;97168.59;9937963;29;20119;-74
2021/01/26 09:57:45;;;;;;;12.32;8.20;;;;;;;0.55;70.38;97168.97;9937660;29;20150;-74
2021/01/26 10:03:05;;;;;;;12.00;9.43;;;;;;;0.55;71.16;97168.97;9924966;29;20477;-73
2021/01/26 10:08:32;;;;;;;43.53;10.90;;;;;;;0.50;72.26;97173.34;9925853;29;20125;-73
2021/01/26 10:14:20;;;;;;;21.83;10.65;;;;;;;0.50;71.72;97167.88;9912720;29;20507;-73
2021/01/26 10:19:40;;;;;;;12.60;9.77;;;;;;;0.63;71.15;97169.75;9955046;29;20565;-74
2021/01/26 10:25:11;;;;;;;11.57;9.60;;;;;;;0.75;71.73;97167.44;9949834;29;20137;-76
2021/01/26 10:30:31;;;;;;;31.70;11.00;;;;;;;0.96;70.49;97161.84;9951905;29;20058;-78
2021/01/26 10:35:51;;;;;;;33.05;11.85;;;;;;;1.24;69.64;97170.00;9939574;29;20062;-77
2021/01/26 10:41:21;;;;;;;26.48;10.77;;;;;;;1.64;69.67;97166.78;9939695;29;20446;-79
2021/01/26 10:46:46;;;;;;;12.20;10.18;;;;;;;1.88;69.37;97162.78;9940813;29;20085;-78
2021/01/26 10:52:07;;;;;;;10.25;9.20;;;;;;;1.99;69.66;97167.91;9941502;29;20115;-77
2021/01/26 10:57:27;;;;;;;14.48;9.88;;;;;;;1.79;69.09;97163.31;9940019;29;20902;-80
2021/01/26 11:02:49;;;;;;;11.13;9.32;;;;;;;1.56;69.70;97155.03;9943237;29;20070;-77
2021/01/26 11:08:09;;;;;;;10.35;8.93;;;;;;;1.43;69.99;97170.41;9963943;29;20059;-78
2021/01/26 11:13:29;;;;;;;11.90;9.35;;;;;;;1.39;70.51;97156.28;9947684;29;20058;-78
2021/01/26 11:18:49;;;;;;;10.98;9.10;;;;;;;1.66;71.03;97155.97;9937929;29;20067;-78
2021/01/26 11:24:10;;;;;;;11.30;8.85;;;;;;;1.85;70.43;97156.34;9952730;29;20502;-79
2021/01/26 11:29:30;;;;;;;12.18;8.07;;;;;;;2.21;69.81;97144.38;9949699;29;20066;-77
2021/01/26 11:34:50;;;;;;;11.77;8.45;;;;;;;2.71;68.84;97150.19;9932905;29;20094;-77
2021/01/26 11:40:10;;;;;;;9.38;7.18;;;;;;;2.79;69.32;97148.09;9946814;29;20062;-77
2021/01/26 11:45:35;;;;;;;8.02;7.20;;;;;;;2.86;69.39;97147.34;9952825;29;20141;-81
2021/01/26 11:50:59;;;;;;;37.03;11.27;;;;;;;2.90;69.28;97144.97;9966211;29;20173;-82
2021/01/26 11:56:24;;;;;;;11.68;9.20;;;;;;;2.96;68.88;97148.22;9954010;29;20554;-80
2021/01/26 12:01:43;;;;;;;14.85;9.20;;;;;;;3.17;69.23;97143.16;9909062;29;20135;-76
2021/01/26 12:07:03;;;;;;;12.20;9.23;;;;;;;3.39;69.14;97146.38;9949611;29;20510;-75
2021/01/26 12:12:23;;;;;;;11.60;8.68;;;;;;;3.43;68.59;97141.19;9939736;29;20429;-75
2021/01/26 12:17:43;;;;;;;11.90;8.20;;;;;;;3.37;68.37;97140.66;9940829;29;20065;-75
2021/01/26 12:23:03;;;;;;;8.80;7.57;;;;;;;3.53;68.56;97142.06;9975201;29;20070;-75
2021/01/26 12:28:23;;;;;;;14.10;7.38;;;;;;;3.73;68.61;97140.25;9992089;29;20065;-75
2021/01/26 12:33:44;;;;;;;10.95;6.75;;;;;;;3.80;68.54;97135.97;9965328;29;20058;-75
2021/01/26 12:39:04;;;;;;;10.95;6.47;;;;;;;3.79;68.04;97135.25;9977749;29;20062;-75
2021/01/26 12:44:24;;;;;;;9.77;6.07;;;;;;;3.83;68.21;97134.84;9959779;29;20154;-74
2021/01/26 12:49:44;;;;;;;307.98;27.25;;;;;;;4.18;67.92;97141.94;9950147;29;20063;-75
2021/01/26 12:55:05;;;;;;;338.25;26.85;;;;;;;4.47;67.82;97142.19;9950208;29;20067;-75
2021/01/26 13:00:26;;;;;;;16.42;7.25;;;;;;;4.35;67.84;97138.47;9936738;29;20507;-75
2021/01/26 13:05:46;;;;;;;12.43;7.63;;;;;;;4.36;67.70;97133.66;9923494;29;20086;-75
2021/01/26 13:11:06;;;;;;;9.60;6.25;;;;;;;4.32;67.33;97140.31;9931148;29;20063;-75
2021/01/26 13:16:25;;;;;;;135.52;16.70;;;;;;;4.09;67.33;97131.50;9911132;29;20077;-75
2021/01/26 13:21:53;;;;;;;16.23;7.72;;;;;;;3.82;67.56;97145.16;9920006;29;20095;-76
2021/01/26 13:27:28;;;;;;;11.75;6.55;;;;;;;3.50;67.40;97151.47;9930534;29;20109;-75
2021/01/26 13:32:49;;;;;;;12.55;6.85;;;;;;;3.29;67.49;97157.28;9935971;29;20459;-75
2021/01/26 13:38:11;;;;;;;8.32;5.97;;;;;;;3.24;67.68;97157.50;9948999;29;20534;-76
2021/01/26 13:43:35;;;;;;;8.53;6.17;;;;;;;3.37;68.03;97163.47;9911249;29;20067;-76
2021/01/26 13:48:58;;;;;;;45.33;9.00;;;;;;;3.30;67.02;97174.56;9920821;29;20115;-76
2021/01/26 13:54:18;;;;;;;15.00;6.95;;;;;;;3.04;67.57;97176.50;9947357;29;20069;-76
2021/01/26 13:59:38;;;;;;;8.70;6.38;;;;;;;3.03;67.58;97179.84;9934602;29;20149;-76
2021/01/26 14:05:01;;;;;;;9.05;6.70;;;;;;;2.94;67.46;97197.69;9947538;29;20414;-76
2021/01/26 14:10:22;;;;;;;10.85;6.50;;;;;;;2.65;67.91;97197.22;9935621;29;20099;-76
2021/01/26 14:15:42;;;;;;;8.30;6.47;;;;;;;2.46;67.79;97203.13;9919701;29;20203;-77
2021/01/26 14:21:02;;;;;;;7.80;5.97;;;;;;;2.36;67.87;97213.25;9949604;29;20534;-75
2021/01/26 14:26:21;;;;;;;9.02;5.93;;;;;;;2.39;68.25;97219.66;9950624;29;20158;-75
2021/01/26 14:31:41;;;;;;;9.82;6.15;;;;;;;2.53;67.66;97218.19;9936825;29;20146;-76
2021/01/26 14:37:01;;;;;;;8.45;6.72;;;;;;;2.59;68.48;97222.19;9950140;29;20062;-75
2021/01/26 14:42:21;;;;;;;7.50;6.35;;;;;;;2.70;67.59;97231.38;9949948;29;20066;-75
2021/01/26 14:47:41;;;;;;;7.65;6.22;;;;;;;2.66;67.83;97237.25;9949445;29;20517;-75
2021/01/26 14:53:00;;;;;;;9.27;6.50;;;;;;;2.56;67.72;97245.34;9935753;29;20069;-75
2021/01/26 14:58:20;;;;;;;10.63;6.72;;;;;;;2.48;68.13;97250.13;9948956;29;20135;-75
2021/01/26 15:03:40;;;;;;;9.35;7.00;;;;;;;2.47;68.49;97262.44;9949095;29;20142;-75
2021/01/26 15:09:02;;;;;;;13.18;6.70;;;;;;;2.52;68.53;97255.28;9935080;29;20062;-75
2021/01/26 15:14:22;;;;;;;59.88;12.57;;;;;;;2.48;68.41;97258.41;9935454;29;20598;-75
2021/01/26 15:19:42;;;;;;;46.17;8.45;;;;;;;2.46;68.03;97271.25;9934857;29;20146;-76
2021/01/26 15:25:02;;;;;;;17.55;6.90;;;;;;;2.40;68.71;97265.94;9935520;29;20101;-75
2021/01/26 15:30:23;;;;;;;15.90;6.80;;;;;;;2.36;68.54;97281.38;9948776;29;20127;-75
2021/01/26 15:35:43;;;;;;;11.05;6.63;;;;;;;2.25;67.81;97276.97;9920941;29;20073;-76
2021/01/26 15:41:04;;;;;;;10.43;6.45;;;;;;;2.20;68.69;97288.88;9920442;29;20510;-76
2021/01/26 15:46:23;;;;;;;10.07;6.53;;;;;;;2.12;68.41;97294.38;9932966;29;20072;-76
2021/01/26 15:51:43;;;;;;;11.35;7.03;;;;;;;2.06;68.57;97309.59;9933408;29;20062;-76
2021/01/26 15:57:03;;;;;;;10.82;7.22;;;;;;;2.00;68.62;97307.00;9946346;29;20094;-76
2021/01/26 16:02:23;;;;;;;11.45;7.30;;;;;;;1.99;68.71;97316.56;9946765;29;20063;-76
2021/01/26 16:07:43;;;;;;;12.23;7.65;;;;;;;1.97;68.49;97313.63;9948030;29;20070;-76
2021/01/26 16:13:03;;;;;;;11.32;8.20;;;;;;;1.89;69.36;97321.84;9960375;29;20070;-79
2021/01/26 16:18:23;;;;;;;8.80;7.03;;;;;;;1.88;69.05;97334.16;9936763;29;20138;-78
2021/01/26 16:23:43;;;;;;;10.02;6.70;;;;;;;1.89;69.24;97343.88;9957771;29;20066;-80
2021/01/26 16:29:03;;;;;;;9.00;6.35;;;;;;;1.90;69.30;97341.84;9928677;29;20414;-77
2021/01/26 16:34:24;;;;;;;8.68;6.55;;;;;;;1.90;69.24;97359.09;9942253;29;20062;-79
2021/01/26 16:39:44;;;;;;;8.70;7.05;;;;;;;1.88;69.05;97358.94;9934724;29;20058;-78
2021/01/26 16:51:30;;;;;;;8.25;5.80;;;;;;;1.85;69.26;97373.78;6206055;27;20127;-76
2021/01/26 16:56:52;;;;;;;8.15;6.18;;;;;;;1.83;69.04;97381.81;9913995;29;20071;-76
2021/01/26 17:02:12;;;;;;;10.80;6.32;;;;;;;1.82;69.09;97385.13;9914477;30;20512;-77
2021/01/26 17:07:32;;;;;;;8.18;5.75;;;;;;;1.78;69.23;97393.75;9922265;30;20120;-77
2021/01/26 17:12:52;;;;;;;9.30;6.82;;;;;;;1.76;69.51;97399.06;9918421;30;20063;-78
2021/01/26 17:18:12;;;;;;;9.15;6.60;;;;;;;1.69;69.68;97408.00;9901224;30;20138;-77
2021/01/26 17:23:32;;;;;;;8.85;6.32;;;;;;;1.66;69.76;97417.38;9906708;30;20510;-76
2021/01/26 17:28:52;;;;;;;7.60;5.50;;;;;;;1.62;70.03;97425.94;9917424;30;20060;-78
2021/01/26 17:35:09;;;;;;;8.00;5.90;;;;;;;1.61;69.80;97427.22;11257398;24;20116;31
2021/01/26 17:40:32;;;;;;;14.23;9.35;;;;;;;1.57;69.94;97445.38;9856787;30;20098;-78
2021/01/26 17:45:54;;;;;;;9.75;7.00;;;;;;;1.52;69.78;97435.25;9876250;30;20068;-78
2021/01/26 17:51:15;;;;;;;8.05;7.05;;;;;;;1.47;69.73;97436.88;9863050;30;20070;-78
2021/01/26 17:56:35;;;;;;;9.30;6.95;;;;;;;1.47;69.98;97444.41;9879727;30;20098;-80
2021/01/26 18:01:58;;;;;;;6.72;5.70;;;;;;;1.43;69.65;97450.22;9875436;29;20067;-79
2021/01/26 18:07:20;;;;;;;8.18;6.80;;;;;;;1.35;69.96;97452.94;9890861;30;20064;-78
2021/01/26 18:12:40;;;;;;;12.18;9.75;;;;;;;1.30;70.02;97464.06;9957817;24;20063;-80
2021/01/26 18:18:01;;;;;;;10.32;7.80;;;;;;;1.26;69.88;97469.94;9936339;29;20130;-79
2021/01/26 18:23:21;;;;;;;8.95;6.78;;;;;;;1.25;70.04;97465.69;9949882;29;20083;-79
2021/01/26 18:28:41;;;;;;;8.80;6.43;;;;;;;1.29;70.32;97473.59;9957055;29;20101;-79
2021/01/26 18:34:01;;;;;;;7.30;6.18;;;;;;;1.29;69.67;97479.09;9964356;29;20145;-80
2021/01/26 18:39:20;;;;;;;7.60;6.40;;;;;;;1.30;69.63;97486.06;9955979;29;20066;-79
2021/01/26 18:44:40;;;;;;;8.98;7.10;;;;;;;1.35;69.91;97480.44;9936237;29;20074;-79
2021/01/26 18:50:01;;;;;;;7.70;6.13;;;;;;;1.35;69.90;97488.69;9938799;29;20073;-79
2021/01/26 18:55:23;;;;;;;7.43;6.25;;;;;;;1.34;69.49;97503.69;9950373;29;20622;-78
2021/01/26 19:00:43;;;;;;;8.13;6.43;;;;;;;1.36;69.50;97506.66;9934986;29;20058;-79
2021/01/26 19:06:03;;;;;;;9.43;7.30;;;;;;;1.31;69.78;97510.28;9934497;29;20582;-78
2021/01/26 19:11:25;;;;;;;9.80;6.88;;;;;;;1.32;69.74;97511.03;9934213;29;20176;-79
2021/01/26 19:16:45;;;;;;;8.57;6.90;;;;;;;1.29;70.13;97521.09;9934268;29;20070;-77
2021/01/26 19:22:05;;;;;;;8.95;7.13;;;;;;;1.34;69.92;97531.19;9947488;29;20066;-77
2021/01/26 19:27:25;;;;;;;8.02;6.07;;;;;;;1.32;69.69;97531.00;9946909;29;20075;-77
2021/01/26 19:32:46;;;;;;;7.03;5.22;;;;;;;1.27;69.51;97534.66;9933490;29;20111;-77
2021/01/26 19:38:06;;;;;;;7.20;5.38;;;;;;;1.24;69.37;97543.94;9946762;29;20092;-77
2021/01/26 19:43:27;;;;;;;5.97;4.75;;;;;;;1.22;69.46;97546.50;9946683;29;20558;-78
2021/01/26 19:48:47;;;;;;;7.28;4.95;;;;;;;1.14;69.03;97557.41;9946276;29;20063;-77
2021/01/26 19:54:08;;;;;;;6.15;4.63;;;;;;;1.12;69.53;97553.75;9946704;29;20063;-76
2021/01/26 19:59:28;;;;;;;7.05;4.65;;;;;;;1.18;68.85;97562.59;9932821;29;20094;-77
2021/01/26 20:04:47;;;;;;;6.22;4.68;;;;;;;1.19;69.23;97569.56;9932430;29;20062;-78
2021/01/26 20:15:49;;;;;;;6.70;5.40;;;;;;;1.19;68.97;97588.09;9867817;30;20095;-77
2021/01/26 20:21:10;;;;;;;6.07;5.00;;;;;;;1.17;69.16;97596.13;9883931;30;20059;-78
2021/01/26 20:26:31;;;;;;;5.90;4.95;;;;;;;1.17;68.36;97588.63;9871651;30;20516;-78
2021/01/26 20:31:51;;;;;;;6.65;5.25;;;;;;;1.13;68.99;97586.19;9877682;30;20063;-76
2021/01/26 20:37:11;;;;;;;6.63;5.35;;;;;;;1.10;68.67;97583.78;9877717;30;20125;-77
2021/01/26 20:42:30;;;;;;;8.57;5.90;;;;;;;1.08;68.69;97581.56;10609990;24;20071;-79
2021/01/26 20:47:51;;;;;;;7.40;5.75;;;;;;;1.05;68.30;97588.13;9937672;29;20120;-75
2021/01/26 20:53:11;;;;;;;6.50;5.35;;;;;;;1.09;68.17;97596.06;9950119;29;20067;-77
2021/01/26 20:58:30;;;;;;;7.25;5.68;;;;;;;0.98;68.43;97594.28;9947287;29;20077;-77
2021/01/26 21:04:09;;;;;;;7.95;5.95;;;;;;;0.91;68.35;97611.44;9940139;29;20133;-76
2021/01/26 21:09:29;;;;;;;7.00;5.22;;;;;;;0.78;68.12;97598.47;9938234;29;20062;-75
2021/01/26 21:14:49;;;;;;;7.07;5.80;;;;;;;0.76;68.05;97609.25;9927989;29;20063;-76
2021/01/26 21:20:10;;;;;;;7.95;5.68;;;;;;;0.74;67.72;97619.28;9957018;29;20066;-77
2021/01/26 21:25:37;;;;;;;7.00;5.13;;;;;;;0.67;68.16;97615.16;9966521;29;20069;-81
2021/01/26 21:31:27;;;;;;;7.47;5.25;;;;;;;0.71;68.40;97609.38;10200063;24;20074;-75
2021/01/26 21:36:47;;;;;;;10.13;5.78;;;;;;;0.71;68.08;97614.88;9951658;29;20066;-72
2021/01/26 21:42:07;;;;;;;7.88;5.43;;;;;;;0.61;67.67;97611.81;9949912;29;20062;-75
2021/01/26 21:47:27;;;;;;;7.90;5.43;;;;;;;0.67;68.13;97612.44;9912010;29;20063;-75
2021/01/26 21:52:47;;;;;;;7.05;5.13;;;;;;;0.48;67.34;97603.56;9937021;29;20062;-75
2021/01/26 21:58:08;;;;;;;8.07;5.43;;;;;;;0.21;66.89;97603.63;9936601;29;20070;-75
2021/01/26 22:03:27;;;;;;;7.97;5.38;;;;;;;0.03;67.21;97609.19;9936654;29;20073;-75
2021/01/26 22:08:47;;;;;;;7.28;4.70;;;;;;;-0.05;67.61;97615.31;9936220;29;20111;-75
2021/01/26 22:14:08;;;;;;;6.68;4.40;;;;;;;-0.10;66.74;97610.66;9936238;29;20058;-77
2021/01/26 22:19:28;;;;;;;6.55;4.15;;;;;;;0.03;67.71;97612.69;9950660;29;20172;-78
2021/01/26 22:24:49;;;;;;;6.13;4.53;;;;;;;0.15;66.59;97621.44;9936694;29;20522;-78
2021/01/26 22:30:10;;;;;;;7.25;4.93;;;;;;;0.22;67.44;97632.53;9950907;29;20474;-78
2021/01/26 22:35:29;;;;;;;6.60;4.95;;;;;;;0.20;66.99;97620.63;9950067;29;20070;-78
2021/01/26 22:40:49;;;;;;;8.10;5.47;;;;;;;0.14;66.81;97620.72;9936395;29;20141;-77
2021/01/26 22:46:09;;;;;;;8.52;5.85;;;;;;;0.06;66.83;97619.84;9949669;29;20515;-78
2021/01/26 22:51:29;;;;;;;8.02;5.90;;;;;;;0.09;67.24;97618.78;9949393;29;20419;-77
2021/01/26 22:56:49;;;;;;;7.95;5.97;;;;;;;0.05;67.08;97626.63;9923756;29;20067;-78
2021/01/26 23:02:09;;;;;;;8.18;5.88;;;;;;;-0.02;67.72;97622.47;9935523;29;20066;-78
2021/01/26 23:07:28;;;;;;;8.32;5.82;;;;;;;-0.06;67.97;97629.56;9948922;29;20092;-78
2021/01/26 23:12:49;;;;;;;9.32;5.82;;;;;;;-0.07;68.85;97617.09;9923758;29;20066;-78
2021/01/26 23:18:12;;;;;;;7.15;5.20;;;;;;;-0.14;69.95;97612.97;9935004;29;20146;-78
2021/01/26 23:23:31;;;;;;;7.28;5.32;;;;;;;-0.14;69.57;97625.97;9936004;29;20067;-78
2021/01/26 23:28:51;;;;;;;6.78;4.65;;;;;;;-0.20;69.08;97628.03;9922084;29;20384;-78
2021/01/26 23:34:11;;;;;;;7.38;4.70;;;;;;;-0.17;69.25;97610.56;9934480;29;20138;-77
2021/01/26 23:39:31;;;;;;;6.28;4.32;;;;;;;-0.16;69.39;97612.03;9948114;29;20584;-78
2021/01/26 23:44:50;;;;;;;5.72;4.32;;;;;;;-0.08;69.32;97623.88;9934901;29;20070;-78
2021/01/26 23:50:16;;;;;;;5.40;3.78;;;;;;;-0.15;68.71;97611.50;9949016;29;20094;-78
2021/01/26 23:55:36;;;;;;;5.72;3.70;;;;;;;-0.26;68.57;97616.44;9934034;29;20466;-78
